createdAt,value
2022-08-29T00:02:56.778Z,12.53
2022-08-29T00:08:01.260Z,12.25
2022-08-29T00:13:04.538Z,15.28
2022-08-29T00:18:08.239Z,16.74
2022-08-29T00:23:11.529Z,19.12
2022-08-29T00:28:14.035Z,20.33
2022-08-29T00:33:16.351Z,20.95
2022-08-29T00:38:19.303Z,22.00
2022-08-29T00:43:25.200Z,22.17
2022-08-29T00:48:27.224Z,23.35
2022-08-29T00:53:40.959Z,23.91
2022-08-29T00:58:47.865Z,28.10
2022-08-29T01:03:51.140Z,27.42
2022-08-29T01:08:57.318Z,27.65
2022-08-29T01:14:01.213Z,27.91
2022-08-29T01:19:10.920Z,27.88
2022-08-29T01:24:16.040Z,27.55
2022-08-29T01:29:18.627Z,27.23
2022-08-29T01:34:20.979Z,27.67
2022-08-29T01:39:26.584Z,29.53
2022-08-29T01:44:28.559Z,28.59
2022-08-29T01:49:35.897Z,28.93
2022-08-29T01:54:41.979Z,30.95
2022-08-29T01:59:44.084Z,32.18
2022-08-29T02:04:47.389Z,32.69
2022-08-29T02:09:49.400Z,33.70
2022-08-29T02:14:51.627Z,33.63
2022-08-29T02:19:53.712Z,34.23
2022-08-29T02:24:55.933Z,35.31
2022-08-29T02:29:57.943Z,36.15
2022-08-29T02:35:00.544Z,36.66
2022-08-29T02:40:03.092Z,36.63
2022-08-29T02:45:05.809Z,36.78
2022-08-29T02:50:10.195Z,36.14
2022-08-29T02:55:15.675Z,35.75
2022-08-29T03:00:25.490Z,37.35
2022-08-29T03:05:30.439Z,36.80
2022-08-29T03:10:32.977Z,36.98
2022-08-29T03:15:35.260Z,37.73
2022-08-29T03:20:38.204Z,36.53
2022-08-29T03:25:40.208Z,37.88
2022-08-29T03:30:42.849Z,37.25
2022-08-29T03:35:45.040Z,38.16
2022-08-29T03:40:47.316Z,37.43
2022-08-29T03:45:52.220Z,37.66
2022-08-29T03:50:56.412Z,37.73
2022-08-29T03:55:58.662Z,38.05
2022-08-29T04:01:01.291Z,37.53
2022-08-29T04:06:03.711Z,38.27
2022-08-29T04:11:10.993Z,38.41
2022-08-29T04:16:15.079Z,37.10
2022-08-29T04:21:18.654Z,36.05
2022-08-29T04:26:37.452Z,36.23
2022-08-29T04:31:40.926Z,36.13
2022-08-29T04:36:45.323Z,37.26
2022-08-29T04:41:47.348Z,37.31
2022-08-29T04:46:49.586Z,37.91
2022-08-29T04:51:52.971Z,38.51
2022-08-29T04:56:55.577Z,38.87
2022-08-29T05:01:59.878Z,42.76
2022-08-29T05:07:02.361Z,45.08
2022-08-29T05:12:09.657Z,44.54
2022-08-29T05:17:12.233Z,44.26
2022-08-29T05:22:15.104Z,42.67
2022-08-29T05:27:20.325Z,40.78
2022-08-29T05:32:22.405Z,40.88
2022-08-29T05:37:24.826Z,39.81
2022-08-29T05:42:27.690Z,39.18
2022-08-29T05:47:31.517Z,40.27
2022-08-29T05:52:33.941Z,38.74
2022-08-29T05:57:36.275Z,37.06
2022-08-29T06:02:38.552Z,36.09
2022-08-29T06:07:40.939Z,35.02
2022-08-29T06:12:43.084Z,36.17
2022-08-29T06:17:45.020Z,35.95
2022-08-29T06:22:47.124Z,34.89
2022-08-29T06:27:49.141Z,33.70
2022-08-29T06:32:51.161Z,31.70
2022-08-29T06:37:53.563Z,30.99
2022-08-29T06:42:55.605Z,31.35
2022-08-29T06:47:57.537Z,28.97
2022-08-29T06:53:14.543Z,28.70
2022-08-29T06:58:21.710Z,27.28
2022-08-29T07:03:23.958Z,22.79
2022-08-29T07:08:26.145Z,22.47
2022-08-29T07:13:28.314Z,26.38
2022-08-29T07:18:30.254Z,23.53
2022-08-29T07:23:32.289Z,24.94
2022-08-29T07:28:35.000Z,21.98
2022-08-29T07:33:40.577Z,25.36
2022-08-29T07:38:42.705Z,20.84
2022-08-29T07:43:45.003Z,17.40
2022-08-29T07:48:47.405Z,20.21
2022-08-29T07:53:50.527Z,17.84
2022-08-29T07:58:53.743Z,20.74
2022-08-29T08:03:56.251Z,18.87
2022-08-29T08:09:00.052Z,15.71
2022-08-29T08:14:03.312Z,11.91
2022-08-29T08:19:07.521Z,14.97
2022-08-29T08:24:10.042Z,17.87
2022-08-29T08:29:13.191Z,19.18
2022-08-29T08:34:16.875Z,21.72
2022-08-29T08:39:19.045Z,21.77
2022-08-29T08:44:28.357Z,23.75
2022-08-29T08:49:42.577Z,22.76
2022-08-29T08:54:51.993Z,24.29
2022-08-29T08:59:57.741Z,22.13
2022-08-29T09:05:22.278Z,18.24
2022-08-29T09:10:37.045Z,12.72
2022-08-29T09:15:48.449Z,10.33
2022-08-29T09:20:53.026Z,9.27
2022-08-29T09:25:56.345Z,5.37
2022-08-29T09:31:23.109Z,0.81
2022-08-29T09:36:46.026Z,-1.02
2022-08-29T09:41:55.552Z,-0.51
2022-08-29T09:47:09.055Z,117.93
2022-08-29T09:52:24.858Z,113.79
2022-08-29T09:57:28.457Z,110.88
2022-08-29T10:02:33.166Z,108.98
2022-08-29T10:07:46.738Z,108.23
2022-08-29T10:13:08.485Z,109.55
2022-08-29T10:18:24.516Z,110.67
2022-08-29T10:23:37.412Z,110.44
2022-08-29T10:28:55.791Z,112.32
2022-08-29T10:34:28.220Z,109.59
2022-08-29T10:40:10.890Z,110.06
2022-08-29T10:45:30.840Z,110.10
2022-08-29T10:50:44.748Z,106.53
2022-08-29T10:56:12.095Z,105.32
2022-08-29T11:01:23.067Z,103.93
2022-08-29T11:07:17.893Z,102.58
2022-08-29T11:12:47.187Z,101.16
2022-08-29T11:17:57.132Z,96.87
2022-08-29T11:23:12.868Z,95.25
2022-08-29T11:28:41.122Z,97.97
2022-08-29T11:33:56.885Z,95.53
2022-08-29T11:39:04.836Z,95.51
2022-08-29T11:44:33.311Z,95.94
2022-08-29T11:49:39.015Z,94.90
2022-08-29T11:54:45.304Z,94.45
2022-08-29T11:59:48.564Z,95.01
2022-08-29T12:05:10.007Z,94.79
2022-08-29T12:10:32.685Z,88.87
2022-08-29T12:15:35.541Z,92.14
2022-08-29T12:20:40.145Z,93.67
2022-08-29T12:25:55.163Z,92.76
2022-08-29T12:31:35.824Z,90.74
2022-08-29T12:36:57.197Z,90.63
2022-08-29T12:42:37.996Z,88.02
2022-08-29T12:47:45.979Z,87.38
2022-08-29T12:53:16.108Z,84.00
2022-08-29T12:58:36.576Z,85.69
2022-08-29T13:03:38.696Z,84.57
2022-08-29T13:08:41.283Z,85.13
2022-08-29T13:13:43.369Z,82.55
2022-08-29T13:19:07.404Z,84.48
2022-08-29T13:24:19.685Z,84.93
2022-08-29T13:35:15.287Z,81.78
2022-08-29T13:40:28.871Z,82.61
2022-08-29T13:45:31.019Z,80.90
2022-08-29T13:50:33.083Z,81.94
2022-08-29T13:55:35.393Z,80.36
2022-08-29T14:00:39.516Z,76.83
2022-08-29T14:05:41.992Z,78.64
2022-08-29T14:10:44.236Z,81.78
2022-08-29T14:15:46.850Z,80.35
2022-08-29T14:20:49.166Z,79.43
2022-08-29T14:25:51.267Z,77.71
2022-08-29T14:30:53.621Z,77.26
2022-08-29T14:35:56.148Z,78.98
2022-08-29T14:40:59.363Z,79.37
2022-08-29T14:46:01.414Z,80.62
2022-08-29T14:51:03.944Z,79.30
2022-08-29T14:56:06.366Z,78.91
2022-08-29T15:01:09.764Z,78.17
2022-08-29T15:06:13.578Z,76.30
2022-08-29T15:11:15.629Z,76.24
2022-08-29T15:16:17.953Z,76.96
2022-08-29T15:21:26.138Z,77.65
2022-08-29T15:26:28.845Z,76.76
2022-08-29T15:31:31.282Z,76.16
2022-08-29T15:36:34.502Z,77.24
2022-08-29T15:41:37.080Z,76.96
2022-08-29T15:46:39.111Z,76.80
2022-08-29T15:51:53.337Z,77.47
2022-08-29T15:56:55.329Z,77.79
2022-08-29T16:01:57.470Z,78.79
2022-08-29T16:06:59.557Z,79.59
2022-08-29T16:12:01.559Z,79.39
2022-08-29T16:17:05.039Z,80.30
2022-08-29T16:22:08.023Z,80.22
2022-08-29T16:27:10.556Z,81.01
2022-08-29T16:32:12.532Z,82.11
2022-08-29T16:37:14.874Z,82.70
2022-08-29T16:42:17.468Z,83.89
2022-08-29T16:47:19.405Z,84.73
2022-08-29T16:52:21.429Z,85.24
2022-08-29T16:57:23.475Z,86.06
2022-08-29T17:02:25.716Z,86.28
2022-08-29T17:07:33.405Z,86.90
2022-08-29T17:12:35.505Z,87.92
2022-08-29T17:17:37.512Z,89.02
2022-08-29T17:22:39.511Z,90.01
2022-08-29T17:27:55.472Z,91.01
2022-08-29T17:33:05.593Z,92.08
2022-08-29T17:38:08.538Z,92.36
2022-08-29T17:43:12.949Z,93.33
2022-08-29T17:48:15.514Z,94.11
2022-08-29T17:53:19.347Z,95.23
2022-08-29T17:58:22.130Z,96.47
2022-08-29T18:03:24.998Z,97.45
2022-08-29T18:08:26.946Z,97.94
2022-08-29T18:13:29.097Z,99.25
2022-08-29T18:18:31.727Z,99.81
2022-08-29T18:23:34.090Z,100.12
2022-08-29T18:28:36.448Z,101.10
2022-08-29T18:33:57.356Z,101.03
2022-08-29T18:39:02.191Z,102.42
2022-08-29T18:44:05.226Z,102.80
2022-08-29T18:49:07.960Z,103.50
2022-08-29T18:54:18.754Z,104.40
2022-08-29T18:59:23.580Z,104.77
2022-08-29T19:04:25.641Z,106.24
2022-08-29T19:09:27.614Z,107.04
2022-08-29T19:14:30.195Z,107.50
2022-08-29T19:19:52.727Z,108.22
2022-08-29T19:24:58.537Z,108.81
2022-08-29T19:30:15.373Z,109.50
2022-08-29T19:35:28.713Z,111.10
2022-08-29T19:40:35.663Z,111.82
2022-08-29T19:45:42.910Z,113.43
2022-08-29T19:50:47.764Z,114.21
2022-08-29T19:55:50.001Z,115.19
2022-08-29T20:00:52.562Z,116.47
2022-08-29T20:05:56.460Z,117.69
2022-08-29T20:10:58.660Z,118.18
2022-08-29T20:16:00.939Z,118.89
2022-08-29T20:21:03.034Z,-5.23
2022-08-29T20:26:05.379Z,-4.47
2022-08-29T20:31:07.758Z,-3.37
2022-08-29T20:36:28.153Z,-2.22
2022-08-29T20:41:31.346Z,-1.31
2022-08-29T20:46:38.071Z,-0.29
2022-08-29T20:51:44.525Z,0.52
2022-08-29T20:56:46.816Z,1.53
2022-08-29T21:01:52.742Z,2.19
2022-08-29T21:07:07.173Z,3.47
2022-08-29T21:12:11.529Z,3.66
2022-08-29T21:17:14.897Z,4.99
2022-08-29T21:22:18.954Z,6.25
2022-08-29T21:27:24.041Z,6.51
2022-08-29T21:32:26.108Z,6.67
2022-08-29T21:37:28.418Z,7.47
2022-08-29T21:42:31.090Z,7.71
2022-08-29T21:47:39.278Z,8.60
2022-08-29T21:52:42.841Z,9.46
2022-08-29T21:57:51.931Z,9.37
2022-08-29T22:02:54.360Z,9.46
2022-08-29T22:08:01.365Z,11.01
2022-08-29T22:13:06.489Z,11.16
2022-08-29T22:18:12.778Z,12.36
2022-08-29T22:23:17.509Z,12.91
2022-08-29T22:28:22.932Z,13.85
2022-08-29T22:33:24.856Z,14.15
2022-08-29T22:38:26.830Z,14.58
2022-08-29T22:43:28.957Z,15.27
2022-08-29T22:48:30.908Z,16.14
2022-08-29T22:53:33.010Z,16.48
2022-08-29T22:58:36.599Z,16.37
2022-08-29T23:03:38.775Z,17.39
2022-08-29T23:08:40.779Z,17.51
2022-08-29T23:13:43.816Z,18.42
2022-08-29T23:18:46.555Z,18.96
2022-08-29T23:23:49.576Z,19.38
2022-08-29T23:28:51.943Z,19.74
2022-08-29T23:33:54.579Z,20.38
2022-08-29T23:38:56.596Z,20.97
2022-08-29T23:43:59.197Z,21.37
2022-08-29T23:49:01.231Z,21.66
2022-08-29T23:54:03.450Z,22.39
2022-08-29T23:59:05.527Z,22.48
